Time;durP1;ratioP1;P1;durP2;ratioP2;P2;SDS_P1;SDS_P2;PMS_P1;PMS_P2;Temp;Humidity;BMP_temperature;BMP_pressure;BME280_temperature;BME280_humidity;BME280_pressure;Samples;Min_cycle;Max_cycle;Signal;HPM_P1;HPM_P2
2023/12/24 00:02:51;;;;;;;19.75;5.25;;;;;;;9.18;100.00;98621.34;6121198;23;20045;-96
2023/12/24 00:08:25;;;;;;;23.02;4.63;;;;;;;9.19;100.00;98642.50;6088161;23;20012;-96
2023/12/24 00:11:11;;;;;;;19.75;4.90;;;;;;;9.18;100.00;98648.72;6203412;23;20020;-95
2023/12/24 00:13:56;;;;;;;;;;;;;;;9.48;100.00;98714.38;6221685;23;20027;-95
2023/12/24 00:17:25;;;;;;;;;;;;;;;;;;;;;
2023/12/24 00:36:16;;;;;;;20.77;4.43;;;;;;;9.69;100.00;98673.16;5849567;24;20551;-96
2023/12/24 00:39:10;;;;;;;15.75;4.45;;;;;;;9.48;100.00;98662.19;5898687;24;20014;-95
2023/12/24 02:33:38;;;;;;;25.50;4.68;;;;;;;8.88;100.00;98681.25;5851109;24;20086;-96
2023/12/24 02:36:40;;;;;;;28.25;5.45;;;;;;;9.19;100.00;98723.88;5834206;24;20480;-93
2023/12/24 02:39:39;;;;;;;20.13;4.05;;;;;;;8.83;100.00;98687.53;5856206;24;20026;-93
2023/12/24 02:43:03;;;;;;;17.60;4.13;;;;;;;9.26;100.00;98762.66;5806082;24;20038;-96
2023/12/24 02:45:54;;;;;;;15.45;4.03;;;;;;;8.96;100.00;98697.88;5796415;24;20087;-95
2023/12/24 02:48:24;;;;;;;11.93;2.72;;;;;;;9.09;100.00;98712.63;5755558;24;20020;-95
2023/12/24 02:55:01;;;;;;;;;;;;;;;;;;;;;
2023/12/24 02:58:14;;;;;;;25.80;6.20;;;;;;;9.33;100.00;98777.53;5811753;24;20015;-96
2023/12/24 03:09:05;;;;;;;29.88;5.13;;;;;;;9.79;100.00;98787.09;6008722;23;20106;-95
2023/12/24 03:12:25;;;;;;;15.52;4.00;;;;;;;9.85;100.00;98763.06;6163198;23;20052;-96
2023/12/24 03:15:43;;;;;;;16.95;3.70;;;;;;;9.94;100.00;98785.00;6220870;23;20035;-96
2023/12/24 03:18:27;;;;;;;23.60;4.47;;;;;;;9.89;100.00;98753.25;6218675;23;20075;-95
2023/12/24 03:21:24;;;;;;;24.95;6.22;;;;;;;9.91;100.00;98753.19;6220031;23;20028;-95
2023/12/24 03:24:12;;;;;;;14.68;3.95;;;;;;;9.59;100.00;98694.66;6219121;23;20347;-94
2023/12/24 03:27:11;;;;;;;21.23;4.93;;;;;;;9.76;100.00;98711.94;6220645;23;20023;-95
2023/12/24 03:29:55;;;;;;;19.77;5.15;;;;;;;9.55;100.00;98734.59;6219316;23;20021;-95
2023/12/24 03:32:39;;;;;;;27.98;6.07;;;;;;;9.15;100.00;98704.53;6206934;23;20493;-96
2023/12/24 03:35:43;;;;;;;22.63;4.47;;;;;;;9.10;100.00;98684.31;6219754;23;20044;-96
2023/12/24 03:38:25;;;;;;;16.23;3.95;;;;;;;9.16;100.00;98687.69;6217777;23;20021;-94
2023/12/24 03:41:29;;;;;;;23.88;6.15;;;;;;;8.98;100.00;98696.94;6099198;23;20449;-94
2023/12/24 03:44:33;;;;;;;26.17;6.97;;;;;;;9.04;100.00;98712.72;6099226;23;20372;-94
2023/12/24 03:47:09;;;;;;;20.42;5.45;;;;;;;8.92;100.00;98701.50;6131488;23;20063;-96
2023/12/24 03:49:53;;;;;;;17.58;3.40;;;;;;;8.74;100.00;98692.13;6220883;23;20024;-96
2023/12/24 03:52:47;;;;;;;13.02;3.58;;;;;;;8.76;100.00;98679.72;6220247;23;20020;-96
2023/12/24 03:55:18;;;;;;;15.30;3.97;;;;;;;8.73;100.00;98685.97;6221415;23;20024;-95
2023/12/24 03:58:10;;;;;;;;;;;;;;;;;;;;;
2023/12/24 04:01:19;;;;;;;19.77;6.97;;;;;;;8.40;100.00;98688.41;6219914;23;20021;-96
2023/12/24 04:04:04;;;;;;;18.50;4.43;;;;;;;8.41;100.00;98705.16;6221923;23;20088;-95
2023/12/24 04:13:41;;;;;;;11.75;4.10;;;;;;;8.01;100.00;98682.94;6103992;23;20547;-92
2023/12/24 04:16:31;;;;;;;10.35;2.80;;;;;;;8.03;100.00;98689.06;6104635;23;20022;-95
2023/12/24 04:22:52;;;;;;;18.10;3.85;;;;;;;7.98;100.00;98679.44;6048129;23;20105;-96
2023/12/24 04:26:11;;;;;;;7.03;2.60;;;;;;;7.92;100.00;98680.44;6046993;23;20022;-95
2023/12/24 04:29:13;;;;;;;13.77;3.00;;;;;;;7.90;100.00;98692.84;6046634;23;20050;-95
2023/12/24 04:32:46;;;;;;;18.50;3.55;;;;;;;7.84;100.00;98697.38;6048053;23;20023;-96
2023/12/24 04:40:04;;;;;;;17.85;4.22;;;;;;;7.93;100.00;98697.19;6043041;23;20034;-96
2023/12/24 04:46:15;;;;;;;15.73;4.63;;;;;;;8.41;100.00;98700.78;5906224;24;20008;-94
2023/12/24 04:49:02;;;;;;;17.83;4.60;;;;;;;8.17;100.00;98686.16;5960877;24;20020;-96
2023/12/24 04:51:54;;;;;;;14.10;5.35;;;;;;;8.25;100.00;98695.75;5963736;24;20459;-95
2023/12/24 04:54:41;;;;;;;16.92;4.70;;;;;;;8.05;100.00;98714.66;5963515;24;20028;-94
2023/12/24 05:02:00;;;;;;;23.23;6.75;;;;;;;8.03;100.00;98698.78;6055749;23;20034;-93
2023/12/24 05:11:38;;;;;;;10.15;5.03;;;;;;;7.56;100.00;98722.50;5941761;23;20012;-95
2023/12/24 05:16:06;;;;;;;20.50;5.20;;;;;;;8.06;100.00;98809.09;5988554;23;20027;-96
2023/12/24 05:18:20;;;;;;;12.48;4.45;;;;;;;7.65;100.00;98758.53;5996286;23;20030;-96
2023/12/24 05:21:44;;;;;;;;;;;;;;;;;;;;;
2023/12/24 05:24:33;;;;;;;;;;;;;;;7.64;100.00;98806.22;5966712;23;20082;-96
2023/12/24 05:27:25;;;;;;;15.88;4.32;;;;;;;7.80;100.00;98818.31;6047121;23;19924;-95
2023/12/24 05:30:20;;;;;;;14.25;3.90;;;;;;;7.80;100.00;98803.28;6047027;23;20018;-94
2023/12/24 05:33:39;;;;;;;22.30;4.95;;;;;;;7.50;100.00;98732.31;6046280;23;20050;-95
2023/12/24 05:36:38;;;;;;;20.88;4.55;;;;;;;7.39;100.00;98737.75;5932535;24;20021;-93
2023/12/24 05:39:23;;;;;;;33.38;5.45;;;;;;;7.19;100.00;98728.34;5935139;24;20020;-96
2023/12/24 05:41:53;;;;;;;11.93;3.47;;;;;;;7.17;100.00;98731.91;5934814;24;20472;-94
2023/12/24 05:44:25;;;;;;;17.08;4.50;;;;;;;7.20;100.00;98731.88;5986048;23;20023;-95
2023/12/24 05:46:54;;;;;;;25.40;4.65;;;;;;;7.32;100.00;98763.44;6047226;23;20461;-95
2023/12/24 05:49:20;;;;;;;12.23;3.63;;;;;;;7.15;100.00;98728.41;6046448;23;20023;-96
2023/12/24 05:51:53;;;;;;;18.60;4.60;;;;;;;7.05;100.00;98745.28;6048049;23;20023;-95
2023/12/24 06:05:25;;;;;;;14.75;2.47;;;;;;;7.23;100.00;98829.69;5958460;24;20071;-95
2023/12/24 06:11:02;;;;;;;14.32;2.13;;;;;;;7.27;100.00;98796.16;5938464;24;20108;-96
2023/12/24 06:13:55;;;;;;;;;;;;;;;;;;;;;
2023/12/24 06:16:36;;;;;;;14.73;2.42;;;;;;;7.24;100.00;98769.72;6046450;23;20027;-95
2023/12/24 06:19:29;;;;;;;11.25;2.28;;;;;;;7.08;100.00;98782.28;6068386;23;20022;-96
2023/12/24 06:26:01;;;;;;;7.63;2.58;;;;;;;7.33;100.00;98785.47;5932496;24;20424;-95
2023/12/24 06:28:39;;;;;;;11.65;3.65;;;;;;;7.11;100.00;98761.97;5998640;23;20015;-96
2023/12/24 06:31:39;;;;;;;15.80;3.50;;;;;;;6.92;100.00;98769.25;6050451;23;20028;-94
2023/12/24 06:34:16;;;;;;;9.90;2.45;;;;;;;7.20;100.00;98792.72;6048886;23;20023;-94
2023/12/24 06:37:23;;;;;;;16.55;3.58;;;;;;;7.09;100.00;98784.91;6040948;23;20105;-96
2023/12/24 06:44:03;;;;;;;20.52;7.60;;;;;;;6.61;100.00;98773.16;6028704;23;20019;-94
2023/12/24 06:50:09;;;;;;;15.23;4.57;;;;;;;6.64;100.00;98784.56;6043245;23;20026;-94
2023/12/24 06:56:19;;;;;;;17.00;2.63;;;;;;;7.04;100.00;98833.44;6116014;23;20028;-96
2023/12/24 06:59:31;;;;;;;11.73;2.88;;;;;;;6.68;100.00;98781.00;6162331;23;20105;-96
2023/12/24 07:09:22;;;;;;;15.82;2.92;;;;;;;7.02;100.00;98775.28;6160452;23;20005;-93
2023/12/24 07:15:08;;;;;;;16.67;5.80;;;;;;;7.51;100.00;98782.56;6156812;23;20021;-95
2023/12/24 07:25:38;;;;;;;54.95;18.80;;;;;;;8.17;100.00;98849.50;6006426;23;20007;-96
2023/12/24 07:35:23;;;;;;;37.03;16.15;;;;;;;8.63;100.00;98876.16;5959364;23;20008;-95
2023/12/24 07:41:22;;;;;;;39.40;13.73;;;;;;;8.87;100.00;98854.50;5963890;24;20098;-95
2023/12/24 07:47:43;;;;;;;26.40;11.48;;;;;;;8.95;100.00;98823.41;5927978;24;20078;-95
2023/12/24 07:50:46;;;;;;;22.90;9.20;;;;;;;9.52;100.00;98889.50;5929912;24;20021;-95
2023/12/24 07:53:23;;;;;;;16.95;8.15;;;;;;;9.20;100.00;98819.38;5907847;24;20025;-95
2023/12/24 07:55:52;;;;;;;16.15;9.52;;;;;;;9.12;100.00;98810.69;5906102;24;20074;-94
2023/12/24 07:58:24;;;;;;;18.77;9.70;;;;;;;9.32;100.00;98851.88;5947499;24;20024;-96
2023/12/24 08:00:50;;;;;;;24.23;10.85;;;;;;;9.13;100.00;98831.03;5962906;24;20028;-95
2023/12/24 08:03:23;;;;;;;20.67;11.27;;;;;;;9.22;100.00;98843.22;5986787;24;20044;-96
2023/12/24 08:05:54;;;;;;;24.73;11.00;;;;;;;9.10;100.00;98822.25;5958639;24;20025;-95
2023/12/24 08:08:34;;;;;;;20.63;11.63;;;;;;;9.07;100.00;98828.50;6008323;23;20087;-96
2023/12/24 08:11:03;;;;;;;19.77;10.18;;;;;;;9.00;100.00;98826.84;6075354;23;20425;-96
2023/12/24 08:13:36;;;;;;;21.67;11.60;;;;;;;9.10;100.00;98847.00;6078159;23;20524;-95
2023/12/24 08:16:13;;;;;;;26.27;12.98;;;;;;;9.23;100.00;98847.63;6076316;23;20106;-95
2023/12/24 08:18:55;;;;;;;18.77;11.70;;;;;;;9.17;100.00;98855.69;6077981;23;20018;-94
2023/12/24 08:21:37;;;;;;;17.88;10.70;;;;;;;9.29;100.00;98881.13;6078304;23;20033;-95
2023/12/24 08:24:08;;;;;;;16.83;10.70;;;;;;;9.25;100.00;98873.22;6102644;23;20029;-96
2023/12/24 08:26:41;;;;;;;20.48;10.90;;;;;;;9.23;100.00;98863.53;6105420;23;20018;-96
2023/12/24 08:29:16;;;;;;;16.73;8.05;;;;;;;9.33;100.00;98870.41;6107388;23;20041;-95
2023/12/24 08:35:28;;;;;;;13.45;6.93;;;;;;;9.57;100.00;98870.81;6018721;23;20007;-95
2023/12/24 08:38:12;;;;;;;;;;;;;;;10.19;100.00;98955.31;6047687;23;20345;-95
2023/12/24 08:40:50;;;;;;;19.85;8.45;;;;;;;10.35;100.00;98956.78;6029418;23;19921;-95
2023/12/24 08:43:31;;;;;;;;;;;;;;;;;;;;;
2023/12/24 08:46:45;;;;;;;16.90;8.77;;;;;;;10.04;100.00;98898.97;5966787;24;20028;-93
2023/12/24 08:56:07;;;;;;;9.45;4.18;;;;;;;9.84;100.00;98912.69;5990142;23;20008;-96
2023/12/24 08:58:41;;;;;;;12.15;4.28;;;;;;;10.14;100.00;98925.34;5965898;24;20027;-96
2023/12/24 09:01:14;;;;;;;16.90;7.03;;;;;;;10.22;100.00;98923.38;5986858;23;20490;-96
2023/12/24 09:03:58;;;;;;;22.83;11.02;;;;;;;10.31;100.00;98936.47;5992764;23;20027;-94
2023/12/24 09:06:41;;;;;;;20.58;8.82;;;;;;;10.28;100.00;98902.84;5995014;23;20029;-96
2023/12/24 09:09:13;;;;;;;20.38;9.40;;;;;;;10.64;100.00;98940.09;6043600;23;20018;-93
2023/12/24 09:11:56;;;;;;;16.63;8.82;;;;;;;10.52;100.00;98915.59;6101439;23;20050;-96
2023/12/24 09:14:32;;;;;;;18.10;9.27;;;;;;;10.71;100.00;98935.50;6108598;23;20022;-96
2023/12/24 09:17:17;;;;;;;23.38;11.35;;;;;;;10.87;100.00;98950.19;6107376;23;20018;-94
2023/12/24 09:20:02;;;;;;;18.50;9.07;;;;;;;10.92;100.00;98943.88;6114857;23;20025;-96
2023/12/24 09:22:44;;;;;;;21.30;10.18;;;;;;;11.36;100.00;99011.91;6114334;23;20018;-96
2023/12/24 09:28:36;;;;;;;35.75;17.10;;;;;;;11.13;100.00;98945.97;6113475;23;20022;-95
2023/12/24 09:34:08;;;;;;;26.35;10.77;;;;;;;11.08;100.00;98935.47;6168587;23;20049;-96
2023/12/24 09:36:41;;;;;;;21.60;11.15;;;;;;;11.45;100.00;99001.03;6139607;23;20530;-96
2023/12/24 09:39:20;;;;;;;24.95;11.30;;;;;;;11.15;100.00;98938.81;6138521;23;20017;-96
2023/12/24 09:41:56;;;;;;;26.98;12.73;;;;;;;11.22;100.00;98929.75;6143717;23;20028;-94
2023/12/24 09:51:25;;;;;;;28.10;11.70;;;;;;;11.36;100.00;98939.16;6089600;23;20045;-95
2023/12/24 09:54:06;;;;;;;22.85;9.68;;;;;;;11.72;100.00;99001.19;6091315;23;20493;-96
2023/12/24 09:56:55;;;;;;;16.95;8.20;;;;;;;11.72;100.00;98967.41;6090500;23;20045;-96
2023/12/24 10:00:09;;;;;;;22.95;6.05;;;;;;;11.72;100.00;98937.25;6134255;23;20088;-96
2023/12/24 10:06:43;;;;;;;43.13;16.85;;;;;;;12.19;100.00;98915.41;6000841;23;20022;-96
2023/12/24 10:10:11;;;;;;;;;;;;;;;;;;;;;
2023/12/24 10:17:55;;;;;;;34.50;18.88;;;;;;;12.93;100.00;98993.97;5802578;24;20048;-96
2023/12/24 10:21:21;;;;;;;21.77;12.85;;;;;;;12.40;100.00;98916.53;5816733;24;20041;-96
2023/12/24 10:28:30;;;;;;;16.27;8.48;;;;;;;12.76;100.00;98978.50;5810571;24;20033;-96
2023/12/24 10:35:03;;;;;;;36.70;17.30;;;;;;;12.68;100.00;98952.06;5787938;24;20000;-96
2023/12/24 10:37:50;;;;;;;27.67;12.15;;;;;;;12.42;100.00;98907.56;5761148;24;20019;-95
2023/12/24 10:40:29;;;;;;;24.10;12.48;;;;;;;12.67;100.00;98920.13;5766395;24;20030;-96
2023/12/24 10:43:06;;;;;;;25.65;10.73;;;;;;;12.72;100.00;98912.81;5736889;24;20544;-96
2023/12/24 10:46:12;;;;;;;21.80;7.95;;;;;;;12.66;100.00;98873.00;5753059;24;20043;-96
2023/12/24 10:49:20;;;;;;;22.48;8.02;;;;;;;12.65;100.00;98873.94;5864960;24;20098;-96
2023/12/24 11:06:50;;;;;;;18.45;6.15;;;;;;;12.80;100.00;98845.88;5887502;23;20024;-96
2023/12/24 11:09:50;;;;;;;17.08;5.18;;;;;;;13.21;100.00;98920.97;6223608;23;20095;-96
2023/12/24 11:12:54;;;;;;;14.45;5.47;;;;;;;12.69;100.00;98851.56;6197553;23;20013;-96
2023/12/24 11:15:54;;;;;;;12.68;4.38;;;;;;;12.57;100.00;98859.97;6199350;23;20044;-96
2023/12/24 11:18:39;;;;;;;14.18;4.43;;;;;;;12.66;100.00;98860.53;6201108;23;20032;-96
2023/12/24 11:21:12;;;;;;;15.32;4.82;;;;;;;12.71;100.00;98897.75;6201747;23;20040;-96
2023/12/24 11:23:39;;;;;;;10.27;4.18;;;;;;;12.44;100.00;98847.06;6198491;23;20024;-95
2023/12/24 11:26:29;;;;;;;17.85;5.15;;;;;;;12.47;100.00;98865.63;6193734;23;20331;-96
2023/12/24 11:28:58;;;;;;;10.80;4.82;;;;;;;12.54;100.00;98860.97;6217794;23;20016;-95
2023/12/24 11:31:32;;;;;;;19.92;6.45;;;;;;;12.99;100.00;98926.16;6192768;23;20016;-95
2023/12/24 11:34:01;;;;;;;19.42;5.72;;;;;;;12.90;100.00;98897.97;6194016;23;20017;-95
2023/12/24 11:36:36;;;;;;;17.30;5.25;;;;;;;12.70;100.00;98850.63;6193949;23;20342;-96
2023/12/24 11:39:07;;;;;;;20.10;5.40;;;;;;;12.72;100.00;98852.31;6194069;23;20021;-96
2023/12/24 11:41:48;;;;;;;16.98;4.85;;;;;;;12.36;100.00;98840.22;6201992;23;20020;-96
2023/12/24 11:44:19;;;;;;;14.27;5.15;;;;;;;12.64;100.00;98849.06;6199311;23;20028;-95
2023/12/24 11:46:50;;;;;;;14.43;4.53;;;;;;;12.65;100.00;98850.78;6197500;23;20024;-95
2023/12/24 11:49:28;;;;;;;17.80;4.32;;;;;;;12.71;100.00;98833.72;6199772;23;20023;-96
2023/12/24 11:52:13;;;;;;;15.13;4.53;;;;;;;12.85;100.00;98828.75;6234658;23;20032;-96
2023/12/24 11:54:51;;;;;;;14.52;5.35;;;;;;;12.88;100.00;98830.44;6210005;23;20008;-95
2023/12/24 11:57:29;;;;;;;20.42;5.68;;;;;;;12.93;100.00;98837.38;6210268;23;20016;-96
2023/12/24 12:00:04;;;;;;;17.63;6.28;;;;;;;13.01;100.00;98826.44;6206949;23;20075;-96
2023/12/24 12:03:04;;;;;;;20.90;7.03;;;;;;;12.99;100.00;98832.72;6203734;23;20016;-95
2023/12/24 12:12:15;;;;;;;13.02;5.35;;;;;;;13.07;100.00;98823.50;6119704;23;20034;-94
2023/12/24 12:15:01;;;;;;;22.17;5.85;;;;;;;13.03;100.00;98824.53;6122290;23;20122;-95
2023/12/24 12:17:49;;;;;;;16.45;5.70;;;;;;;13.20;100.00;98842.63;6118055;23;20041;-96
2023/12/24 12:20:20;;;;;;;24.33;6.38;;;;;;;13.08;100.00;98829.75;6112116;23;20049;-95
2023/12/24 12:22:50;;;;;;;18.65;6.35;;;;;;;13.33;100.00;98853.75;6110533;23;20022;-93
2023/12/24 12:26:01;;;;;;;18.10;5.50;;;;;;;13.23;100.00;98831.84;6114623;23;20022;-96
2023/12/24 12:39:32;;;;;;;15.95;5.53;;;;;;;13.36;100.00;98856.34;6118964;23;20026;-95
2023/12/24 12:49:46;;;;;;;22.85;6.85;;;;;;;13.16;100.00;98806.28;6079895;23;20041;-96
2023/12/24 12:56:13;;;;;;;14.40;6.25;;;;;;;13.29;100.00;98812.97;5920591;24;20108;-95
2023/12/24 13:03:21;;;;;;;18.30;5.45;;;;;;;13.09;100.00;98786.94;5818918;24;20114;-96
2023/12/24 13:06:21;;;;;;;17.77;6.53;;;;;;;12.99;100.00;98787.34;5841623;24;20093;-96
2023/12/24 13:09:30;;;;;;;;;;;;;;;;;;;;;
2023/12/24 13:40:09;;;;;;;14.68;5.55;;;;;;;13.52;100.00;98876.19;5920208;24;20036;-95
2023/12/24 13:46:53;;;;;;;14.48;4.80;;;;;;;13.38;100.00;98854.50;5913423;24;20060;-96
2023/12/24 13:49:20;;;;;;;13.40;4.72;;;;;;;13.16;100.00;98811.63;5907826;24;20160;-94
2023/12/24 13:52:03;;;;;;;15.10;6.47;;;;;;;13.05;100.00;98809.34;5889094;24;20021;-95
2023/12/24 13:54:46;;;;;;;18.88;8.13;;;;;;;12.93;100.00;98800.00;5905762;24;20021;-96
2023/12/24 13:57:23;;;;;;;19.05;7.60;;;;;;;13.00;100.00;98818.47;5937869;24;20087;-96
2023/12/24 14:07:08;;;;;;;17.60;6.53;;;;;;;12.83;100.00;98811.06;5994291;24;20004;-96
2023/12/24 14:25:09;;;;;;;22.15;5.78;;;;;;;12.91;100.00;98849.88;5996973;23;20095;-96
2023/12/24 14:34:42;;;;;;;;;;;;;;;;;;;;;
2023/12/24 14:37:50;;;;;;;15.15;6.70;;;;;;;12.60;100.00;98838.53;6112641;23;20177;-96
2023/12/24 14:41:22;;;;;;;18.67;6.13;;;;;;;12.38;100.00;98825.06;6113499;23;20024;-96
2023/12/24 14:44:46;;;;;;;29.25;7.07;;;;;;;12.80;100.00;98873.41;6141212;23;20029;-95
2023/12/24 14:47:55;;;;;;;25.52;7.55;;;;;;;12.43;100.00;98823.13;6138787;23;20026;-96
2023/12/24 14:54:12;;;;;;;25.00;9.30;;;;;;;12.91;100.00;98900.59;6166491;23;20037;-96
2023/12/24 14:56:49;;;;;;;24.88;10.18;;;;;;;12.71;100.00;98884.41;6141750;23;20045;-96
2023/12/24 14:59:26;;;;;;;23.77;9.35;;;;;;;12.42;100.00;98835.56;6126296;23;20022;-96
2023/12/24 15:01:58;;;;;;;22.60;8.25;;;;;;;12.39;100.00;98837.47;6112597;23;20026;-95
2023/12/24 15:04:44;;;;;;;23.40;8.15;;;;;;;12.33;100.00;98830.53;6112598;23;20018;-96
2023/12/24 15:07:46;;;;;;;21.70;7.88;;;;;;;12.31;100.00;98843.06;6111978;23;20478;-96
2023/12/24 15:11:01;;;;;;;32.08;8.50;;;;;;;12.46;100.00;98863.00;6110292;23;20022;-96
2023/12/24 15:13:31;;;;;;;19.75;7.80;;;;;;;12.31;100.00;98843.91;6087158;23;20030;-94
2023/12/24 15:15:57;;;;;;;27.30;10.27;;;;;;;12.31;100.00;98843.06;6110670;23;20026;-96
2023/12/24 15:18:23;;;;;;;29.77;8.95;;;;;;;12.41;100.00;98859.63;6103602;23;20022;-96
2023/12/24 15:21:06;;;;;;;27.48;9.20;;;;;;;12.61;100.00;98904.31;6103381;23;20435;-95
2023/12/24 15:23:38;;;;;;;23.08;7.32;;;;;;;12.25;100.00;98857.47;6119337;23;20034;-95
2023/12/24 15:26:09;;;;;;;25.08;7.85;;;;;;;12.18;100.00;98855.91;6132168;23;20436;-95
2023/12/24 15:28:37;;;;;;;20.67;7.07;;;;;;;12.41;100.00;98892.50;6136483;23;20037;-94
2023/12/24 15:31:04;;;;;;;19.88;8.00;;;;;;;12.33;100.00;98881.22;6194515;23;20009;-96
2023/12/24 15:33:30;;;;;;;23.55;8.55;;;;;;;12.52;100.00;98914.34;6191996;23;20395;-95
2023/12/24 15:36:49;;;;;;;29.80;9.05;;;;;;;12.17;100.00;98859.50;6193508;23;20024;-96
2023/12/24 15:42:46;;;;;;;22.45;6.63;;;;;;;12.18;100.00;98890.56;6196900;23;20005;-96
2023/12/24 15:45:18;;;;;;;25.55;7.70;;;;;;;12.04;100.00;98875.03;6194066;23;20032;-94
2023/12/24 15:48:20;;;;;;;20.10;6.35;;;;;;;12.49;100.00;98942.91;6199843;23;20027;-96
2023/12/24 15:51:10;;;;;;;19.33;6.43;;;;;;;12.19;100.00;98910.09;6214747;23;20446;-96
2023/12/24 15:53:52;;;;;;;21.15;7.75;;;;;;;11.81;100.00;98862.34;6199760;23;20026;-96
2023/12/24 15:56:21;;;;;;;;;;;;;;;12.27;100.00;98937.38;6203804;23;20020;-96
2023/12/24 15:59:26;;;;;;;24.02;5.30;;;;;;;11.80;100.00;98852.63;6205272;23;19959;-96
2023/12/24 16:02:18;;;;;;;;;;;;;;;;;;;;;
2023/12/24 16:05:15;;;;;;;17.65;6.97;;;;;;;11.71;100.00;98844.94;6203883;23;20005;-96
2023/12/24 16:15:14;;;;;;;23.92;8.77;;;;;;;11.76;100.00;98866.97;6114417;23;20100;-96
2023/12/24 16:17:44;;;;;;;20.08;6.07;;;;;;;12.13;100.00;98949.34;6117553;23;20021;-96
2023/12/24 16:20:15;;;;;;;24.17;6.78;;;;;;;11.69;100.00;98870.75;6115790;23;20378;-96
2023/12/24 16:22:54;;;;;;;23.48;7.45;;;;;;;11.66;100.00;98879.69;6143665;23;20026;-95
2023/12/24 16:25:28;;;;;;;25.50;8.32;;;;;;;11.45;100.00;98864.31;6130472;23;20411;-94
2023/12/24 16:27:57;;;;;;;27.90;8.52;;;;;;;11.52;100.00;98889.88;6128851;23;20029;-95
2023/12/24 16:30:25;;;;;;;24.95;7.38;;;;;;;11.40;100.00;98884.91;6129881;23;20018;-94
2023/12/24 16:32:51;;;;;;;20.30;6.85;;;;;;;11.22;100.00;98868.53;6130985;23;20026;-94
2023/12/24 16:35:29;;;;;;;16.70;7.38;;;;;;;11.44;100.00;98935.34;6134152;23;20018;-96
2023/12/24 16:42:35;;;;;;;23.38;8.38;;;;;;;10.75;100.00;98875.13;6137028;23;20010;-96
2023/12/24 16:49:55;;;;;;;23.02;7.53;;;;;;;10.62;100.00;98874.56;6005543;23;20016;-96
2023/12/24 17:01:07;;;;;;;19.05;6.97;;;;;;;11.13;100.00;98971.72;5927225;24;20026;-96
2023/12/24 17:14:20;;;;;;;18.38;5.30;;;;;;;10.88;100.00;98905.81;5921471;24;20037;-96
2023/12/24 17:17:50;;;;;;;;;;;;;;;;;;;;;
2023/12/24 17:25:17;;;;;;;;;;;;;;;;;;;;;
2023/12/24 17:29:09;;;;;;;16.48;5.88;;;;;;;11.18;100.00;98941.41;5849592;24;20031;-96
2023/12/24 17:35:57;;;;;;;18.60;6.60;;;;;;;11.03;100.00;98924.03;5876926;24;20006;-96
2023/12/24 17:42:22;;;;;;;20.85;8.85;;;;;;;11.35;100.00;98961.38;6102241;23;20016;-96
2023/12/24 17:45:56;;;;;;;21.75;9.00;;;;;;;11.15;100.00;98922.00;6205069;23;20079;-96
2023/12/24 17:58:57;;;;;;;23.20;9.50;;;;;;;11.15;100.00;98937.97;6120410;23;20014;-96
2023/12/24 18:02:08;;;;;;;;;;;;;;;;;;;;;
2023/12/24 18:05:08;;;;;;;28.33;7.32;;;;;;;11.32;100.00;99026.22;6093157;23;20042;-96
2023/12/24 18:07:51;;;;;;;28.00;7.90;;;;;;;11.13;100.00;99025.81;6094217;23;20042;-96
2023/12/24 18:10:23;;;;;;;22.25;6.97;;;;;;;10.53;100.00;98951.94;6088277;23;20547;-96
2023/12/24 18:13:06;;;;;;;24.58;6.70;;;;;;;10.44;100.00;98951.22;6084457;23;20023;-95
2023/12/24 18:15:40;;;;;;;21.45;6.55;;;;;;;10.33;100.00;98947.09;6085215;23;20061;-96
2023/12/24 18:18:37;;;;;;;20.27;6.07;;;;;;;10.27;100.00;98954.25;6108747;23;20154;-95
2023/12/24 18:21:07;;;;;;;18.88;6.40;;;;;;;10.20;100.00;98960.63;6083775;23;20143;-95
2023/12/24 18:23:34;;;;;;;23.80;8.18;;;;;;;10.32;100.00;98977.22;6084255;23;20033;-96
2023/12/24 18:26:01;;;;;;;23.30;6.68;;;;;;;10.45;100.00;99000.84;6085121;23;20105;-95
2023/12/24 18:28:31;;;;;;;20.08;6.30;;;;;;;10.33;100.00;98963.03;6085429;23;20030;-96
2023/12/24 18:31:03;;;;;;;21.75;6.00;;;;;;;10.36;100.00;98969.13;6105491;23;20017;-95
2023/12/24 18:33:36;;;;;;;19.20;5.88;;;;;;;10.30;100.00;98960.44;6201452;23;20028;-95
2023/12/24 18:36:02;;;;;;;25.70;7.85;;;;;;;10.23;100.00;98968.50;6204073;23;20052;-94
2023/12/24 18:38:36;;;;;;;24.23;6.57;;;;;;;10.36;100.00;98990.41;6201625;23;20020;-96
2023/12/24 18:41:02;;;;;;;19.20;6.40;;;;;;;10.19;100.00;98973.94;6200529;23;20022;-95
2023/12/24 18:43:33;;;;;;;19.67;6.45;;;;;;;10.39;100.00;99005.44;6201485;23;20093;-94
2023/12/24 18:46:03;;;;;;;18.50;6.45;;;;;;;10.30;100.00;98993.22;6201571;23;20103;-94
2023/12/24 18:48:31;;;;;;;17.13;6.97;;;;;;;10.30;100.00;98990.56;6201168;23;20023;-95
2023/12/24 18:50:57;;;;;;;21.83;7.18;;;;;;;10.39;100.00;98995.66;6201169;23;20080;-95
2023/12/24 18:53:25;;;;;;;21.45;6.93;;;;;;;10.49;100.00;98991.00;6202201;23;20020;-95
2023/12/24 18:55:55;;;;;;;23.10;5.65;;;;;;;10.54;100.00;98982.91;6202293;23;20347;-95
2023/12/24 18:58:21;;;;;;;23.80;6.18;;;;;;;10.58;100.00;98987.25;6201759;23;20398;-95
2023/12/24 19:00:52;;;;;;;22.15;7.60;;;;;;;10.61;100.00;98979.22;6201592;23;20032;-95
2023/12/24 19:03:18;;;;;;;21.48;6.60;;;;;;;10.58;100.00;98976.59;6201006;23;20342;-95
2023/12/24 19:05:49;;;;;;;24.73;7.95;;;;;;;10.57;100.00;98967.78;6201377;23;20032;-94
2023/12/24 19:08:18;;;;;;;21.10;7.75;;;;;;;10.90;100.00;99045.88;6201115;23;20064;-94
2023/12/24 19:10:51;;;;;;;22.80;7.93;;;;;;;10.42;100.00;98974.31;6202227;23;20016;-93
2023/12/24 19:13:23;;;;;;;25.55;8.13;;;;;;;10.35;100.00;98970.06;6201431;23;20020;-96
2023/12/24 19:15:57;;;;;;;16.17;5.28;;;;;;;10.34;100.00;98973.59;6202098;23;20355;-96
2023/12/24 19:18:29;;;;;;;15.70;5.47;;;;;;;10.28;100.00;98984.38;6203331;23;20024;-95
2023/12/24 19:20:55;;;;;;;15.90;5.07;;;;;;;10.14;100.00;98974.03;6204258;23;20044;-96
2023/12/24 19:23:34;;;;;;;17.67;4.45;;;;;;;10.05;100.00;98972.44;6204857;23;20020;-96
2023/12/24 19:26:21;;;;;;;13.88;4.35;;;;;;;10.02;100.00;98972.53;6204463;23;20016;-94
2023/12/24 19:28:50;;;;;;;10.85;4.43;;;;;;;9.97;100.00;98963.75;6203637;23;20120;-95
2023/12/24 19:31:23;;;;;;;16.42;3.97;;;;;;;9.91;100.00;98973.66;6231545;23;20017;-96
2023/12/24 19:33:52;;;;;;;11.77;3.50;;;;;;;9.90;100.00;98990.50;6203928;23;20104;-95
2023/12/24 19:36:18;;;;;;;22.23;3.30;;;;;;;9.68;100.00;98966.19;6203953;23;20017;-95
2023/12/24 19:38:47;;;;;;;14.13;4.28;;;;;;;9.95;100.00;99015.19;6203833;23;20031;-95
2023/12/24 19:41:19;;;;;;;13.80;3.88;;;;;;;10.01;100.00;99031.00;6203409;23;20021;-96
2023/12/24 19:43:45;;;;;;;18.00;3.80;;;;;;;9.82;100.00;99012.81;6204124;23;20316;-96
2023/12/24 19:46:18;;;;;;;14.35;3.22;;;;;;;9.70;100.00;98998.88;6198833;23;20037;-96
2023/12/24 19:48:45;;;;;;;12.88;3.75;;;;;;;9.51;100.00;98980.66;6204700;23;20020;-96
2023/12/24 19:51:14;;;;;;;9.32;2.85;;;;;;;9.43;100.00;98985.22;6199522;23;20027;-94
2023/12/24 19:53:48;;;;;;;11.95;3.75;;;;;;;9.39;100.00;98989.72;6199061;23;20028;-95
2023/12/24 19:56:15;;;;;;;11.20;3.03;;;;;;;9.28;100.00;98996.13;6199132;23;20028;-95
2023/12/24 19:59:06;;;;;;;19.10;3.55;;;;;;;9.24;100.00;98987.38;6198796;23;20021;-95
2023/12/24 20:01:44;;;;;;;11.80;3.20;;;;;;;9.70;100.00;99078.56;6200387;23;20048;-95
2023/12/24 20:04:15;;;;;;;15.52;3.63;;;;;;;9.00;100.00;98999.25;6203158;23;20028;-94
2023/12/24 20:06:43;;;;;;;10.75;2.97;;;;;;;8.83;100.00;99002.22;6203887;23;20021;-96
2023/12/24 20:09:29;;;;;;;8.65;2.97;;;;;;;9.35;100.00;99067.66;6203367;23;20120;-95
2023/12/24 20:12:16;;;;;;;23.75;3.90;;;;;;;9.35;100.00;99066.78;6201154;23;20435;-95
2023/12/24 20:14:57;;;;;;;11.43;2.88;;;;;;;9.29;100.00;99072.19;6203643;23;20017;-95
2023/12/24 20:17:39;;;;;;;16.88;5.75;;;;;;;8.99;100.00;99022.25;6203027;23;20031;-95
2023/12/24 20:20:31;;;;;;;20.58;5.70;;;;;;;8.82;100.00;99009.28;6202191;23;20095;-95
2023/12/24 20:23:00;;;;;;;21.10;5.75;;;;;;;8.80;100.00;99012.84;6199001;23;20024;-95
2023/12/24 20:26:17;;;;;;;21.23;6.68;;;;;;;8.81;100.00;99014.63;6203619;23;20020;-94